Time;durP1;ratioP1;P1;durP2;ratioP2;P2;SDS_P1;SDS_P2;PMS_P1;PMS_P2;Temp;Humidity;BMP_temperature;BMP_pressure;BME280_temperature;BME280_humidity;BME280_pressure;Samples;Min_cycle;Max_cycle;Signal;HPM_P1;HPM_P2
2020/12/18 00:01:22;;;;;;;3.97;2.10;;;9.10;71.30;;;;;;2454290;55;21047;-71
2020/12/18 00:03:52;;;;;;;4.37;1.83;;;9.10;71.10;;;;;;2445074;56;21130;-71
2020/12/18 00:06:19;;;;;;;3.67;2.00;;;9.00;70.90;;;;;;2445115;55;21660;-72
2020/12/18 00:08:47;;;;;;;4.60;2.40;;;9.00;70.90;;;;;;2444090;55;21909;-72
2020/12/18 00:11:23;;;;;;;4.65;2.45;;;8.90;70.90;;;;;;2225410;55;21812;-71
2020/12/18 00:13:50;;;;;;;5.03;2.70;;;8.80;70.80;;;;;;2441426;55;21050;-72
2020/12/18 00:16:18;;;;;;;4.43;2.10;;;8.80;71.00;;;;;;2458647;55;21063;-71
2020/12/18 00:18:44;;;;;;;4.82;2.20;;;8.70;70.90;;;;;;2234510;55;21009;-71
2020/12/18 00:21:11;;;;;;;3.85;1.95;;;8.70;70.80;;;;;;2453557;56;21024;-71
2020/12/18 00:23:38;;;;;;;3.95;1.77;;;8.60;70.80;;;;;;2239130;56;20960;-72
2020/12/18 00:26:04;;;;;;;3.50;1.85;;;8.50;70.60;;;;;;2445274;56;21062;-72
2020/12/18 00:28:31;;;;;;;3.65;1.92;;;8.50;70.60;;;;;;2238437;56;20968;-72
2020/12/18 00:30:58;;;;;;;3.85;1.80;;;8.50;70.60;;;;;;2462266;55;21738;-71
2020/12/18 00:33:26;;;;;;;4.78;2.08;;;8.40;70.60;;;;;;2238025;56;20971;-71
2020/12/18 00:35:53;;;;;;;4.57;2.45;;;8.30;70.50;;;;;;2450703;55;20950;-72
2020/12/18 00:38:41;;;;;;;4.28;2.05;;;8.30;70.60;;;;;;2445361;55;20957;-72
2020/12/18 00:41:12;;;;;;;4.55;2.20;;;8.30;70.50;;;;;;2450974;56;21066;-71
2020/12/18 00:43:39;;;;;;;3.90;2.10;;;8.20;70.50;;;;;;2234904;56;20996;-71
2020/12/18 00:46:18;;;;;;;6.97;2.87;;;8.10;70.40;;;;;;2462271;55;21454;-72
2020/12/18 00:48:45;;;;;;;4.75;2.30;;;8.10;70.50;;;;;;2207525;57;20968;-71
2020/12/18 00:51:17;;;;;;;4.68;2.75;;;8.00;70.80;;;;;;2416967;56;21020;-70
2020/12/18 00:53:44;;;;;;;4.18;2.10;;;8.00;71.20;;;;;;2420316;55;21024;-72
2020/12/18 00:56:11;;;;;;;5.40;2.30;;;7.90;71.30;;;;;;2450052;55;20992;-71
2020/12/18 00:58:37;;;;;;;4.30;2.03;;;7.90;71.50;;;;;;2234541;56;20929;-71
2020/12/18 01:01:06;;;;;;;4.78;2.50;;;7.90;71.70;;;;;;2238462;56;21016;-71
2020/12/18 01:03:33;;;;;;;4.15;2.17;;;7.80;71.80;;;;;;2462831;55;20969;-71
2020/12/18 01:06:06;;;;;;;3.45;1.70;;;7.90;72.00;;;;;;2462469;56;20989;-72
2020/12/18 01:08:33;;;;;;;3.62;1.70;;;7.90;72.90;;;;;;2229167;56;21381;-71
2020/12/18 01:11:04;;;;;;;3.17;1.50;;;7.80;72.20;;;;;;2443458;55;21023;-71
2020/12/18 01:13:31;;;;;;;4.07;2.05;;;7.80;72.20;;;;;;2443531;55;21021;-71
2020/12/18 01:15:59;;;;;;;3.83;1.65;;;7.80;72.00;;;;;;2447131;55;20957;-72
2020/12/18 01:18:25;;;;;;;3.00;1.45;;;7.80;71.90;;;;;;2237112;55;20989;-71
2020/12/18 01:20:52;;;;;;;3.03;1.58;;;7.80;71.90;;;;;;2462122;55;21036;-71
2020/12/18 01:23:20;;;;;;;3.15;1.50;;;7.80;72.00;;;;;;2462367;55;21096;-71
2020/12/18 01:25:48;;;;;;;3.35;1.50;;;7.70;71.90;;;;;;2241717;55;20949;-71
2020/12/18 01:28:16;;;;;;;3.30;1.37;;;7.70;72.10;;;;;;2231851;56;20995;-71
2020/12/18 01:30:42;;;;;;;3.20;1.52;;;7.70;72.40;;;;;;2207025;57;21524;-71
2020/12/18 01:33:10;;;;;;;2.75;1.23;;;7.70;72.50;;;;;;2238582;56;20976;-72
2020/12/18 01:35:37;;;;;;;2.70;1.25;;;7.70;72.60;;;;;;2238880;56;21000;-71
2020/12/18 01:38:03;;;;;;;3.85;1.80;;;7.70;72.70;;;;;;2238495;56;20953;-71
2020/12/18 01:40:30;;;;;;;4.37;1.80;;;7.70;72.80;;;;;;2462511;55;20980;-71
2020/12/18 01:42:56;;;;;;;3.47;1.83;;;7.70;72.80;;;;;;2457515;55;21051;-72
2020/12/18 01:45:23;;;;;;;4.97;2.15;;;7.70;72.90;;;;;;2224963;55;21029;-71
2020/12/18 01:47:49;;;;;;;3.58;1.85;;;7.70;72.90;;;;;;2235674;55;20981;-71
2020/12/18 01:50:16;;;;;;;3.10;1.62;;;7.70;72.80;;;;;;2239836;55;21024;-71
2020/12/18 01:52:43;;;;;;;4.20;2.15;;;7.70;73.00;;;;;;2230503;55;21048;-71
2020/12/18 01:55:09;;;;;;;3.25;1.90;;;7.80;73.30;;;;;;2228886;55;20963;-72
2020/12/18 01:57:37;;;;;;;3.62;1.95;;;7.80;73.40;;;;;;2229014;56;21083;-72
2020/12/18 02:00:07;;;;;;;3.30;1.52;;;7.80;73.60;;;;;;2240666;56;21068;-71
2020/12/18 02:02:35;;;;;;;4.10;1.90;;;7.80;73.70;;;;;;2227134;55;21834;-72
2020/12/18 02:05:01;;;;;;;4.57;2.10;;;7.80;73.80;;;;;;2461781;55;21036;-71
2020/12/18 02:07:28;;;;;;;3.60;1.70;;;7.80;73.80;;;;;;2241918;55;20996;-72
2020/12/18 02:09:58;;;;;;;3.20;1.50;;;7.90;73.90;;;;;;2445774;56;21034;-72
2020/12/18 02:12:27;;;;;;;4.37;1.90;;;7.90;73.90;;;;;;2239566;56;20977;-71
2020/12/18 02:14:56;;;;;;;3.40;1.65;;;7.90;73.80;;;;;;2462093;55;20949;-72
2020/12/18 02:17:23;;;;;;;3.35;1.75;;;7.90;73.70;;;;;;2239024;55;21017;-71
2020/12/18 02:19:51;;;;;;;3.42;1.80;;;8.00;73.60;;;;;;2238523;56;21013;-71
2020/12/18 02:22:19;;;;;;;4.07;2.05;;;8.00;73.50;;;;;;2458029;55;20999;-72
2020/12/18 02:25:10;;;;;;;4.35;1.85;;;8.00;73.30;;;;;;2207346;57;21561;-71
2020/12/18 02:27:37;;;;;;;2.45;1.25;;;8.00;73.20;;;;;;2239250;56;20976;-71
2020/12/18 02:30:05;;;;;;;3.50;1.62;;;8.00;73.20;;;;;;2451737;55;21036;-72
2020/12/18 02:32:31;;;;;;;3.90;1.52;;;8.00;73.20;;;;;;2454669;55;20981;-72
2020/12/18 02:34:57;;;;;;;4.85;1.70;;;8.00;73.10;;;;;;2445206;56;21032;-71
2020/12/18 02:37:24;;;;;;;4.22;1.85;;;8.00;73.10;;;;;;2445976;56;20965;-72
2020/12/18 02:39:58;;;;;;;4.00;2.20;;;8.00;73.30;;;;;;2235930;56;21416;-72
2020/12/18 02:42:34;;;;;;;3.95;1.85;;;8.00;73.30;;;;;;2228021;55;21152;-72
2020/12/18 02:45:00;;;;;;;4.00;2.05;;;8.00;73.40;;;;;;2238607;56;20949;-72
2020/12/18 02:47:30;;;;;;;4.37;2.20;;;8.00;73.60;;;;;;2238549;56;20996;-72
2020/12/18 02:49:58;;;;;;;3.67;1.85;;;8.00;73.60;;;;;;2462950;56;20965;-72
2020/12/18 02:52:24;;;;;;;3.05;1.77;;;8.10;73.80;;;;;;2237679;56;21777;-72
2020/12/18 02:54:52;;;;;;;3.75;1.90;;;8.10;73.80;;;;;;2231949;55;20971;-72
2020/12/18 02:57:20;;;;;;;5.05;2.12;;;8.10;73.90;;;;;;2417037;56;21010;-72
2020/12/18 02:59:46;;;;;;;4.30;2.03;;;8.10;73.80;;;;;;2446760;56;21725;-71
2020/12/18 03:02:13;;;;;;;3.72;2.12;;;8.10;73.80;;;;;;2456318;56;21031;-72
2020/12/18 03:04:42;;;;;;;3.47;1.80;;;8.20;73.80;;;;;;2240286;56;20992;-71
2020/12/18 03:07:09;;;;;;;4.65;2.10;;;8.20;73.70;;;;;;2443518;55;20986;-72
2020/12/18 03:09:35;;;;;;;3.47;1.90;;;8.20;73.50;;;;;;2236994;56;20989;-72
2020/12/18 03:12:02;;;;;;;3.25;1.52;;;8.20;73.20;;;;;;2241723;56;20971;-72
2020/12/18 03:14:47;;;;;;;4.10;1.60;;;8.20;73.00;;;;;;2445085;55;20948;-71
2020/12/18 03:17:13;;;;;;;3.47;1.67;;;8.20;72.40;;;;;;2462005;55;20965;-71
2020/12/18 03:19:40;;;;;;;3.35;1.83;;;8.20;72.30;;;;;;2452572;55;21115;-71
2020/12/18 03:22:07;;;;;;;3.35;1.50;;;8.10;72.10;;;;;;2225680;55;20953;-72
2020/12/18 03:24:34;;;;;;;3.62;1.90;;;8.10;72.10;;;;;;2238567;55;21021;-72
2020/12/18 03:27:01;;;;;;;3.85;1.55;;;8.10;72.00;;;;;;2231018;55;21507;-72
2020/12/18 03:29:28;;;;;;;6.07;1.80;;;8.10;71.90;;;;;;2458678;55;21309;-71
2020/12/18 03:31:54;;;;;;;3.10;1.40;;;8.00;71.70;;;;;;2443456;55;21544;-71
2020/12/18 03:34:21;;;;;;;3.17;1.60;;;8.00;71.60;;;;;;2230865;56;21013;-71
2020/12/18 03:36:48;;;;;;;3.40;1.48;;;7.90;71.30;;;;;;2230119;56;20975;-71
2020/12/18 03:39:14;;;;;;;3.40;1.70;;;7.90;71.30;;;;;;2226148;55;21000;-72
2020/12/18 03:41:41;;;;;;;2.75;1.40;;;7.80;71.20;;;;;;2234175;55;21039;-71
2020/12/18 03:44:08;;;;;;;4.05;1.77;;;7.80;71.10;;;;;;2239060;55;21049;-71
2020/12/18 03:46:36;;;;;;;3.25;1.70;;;7.80;71.10;;;;;;2445546;56;21000;-71
2020/12/18 03:49:02;;;;;;;3.22;1.50;;;7.70;71.00;;;;;;2235191;56;20951;-71
2020/12/18 03:51:29;;;;;;;3.33;1.65;;;7.70;70.70;;;;;;2453635;56;21033;-71
2020/12/18 03:53:57;;;;;;;3.67;1.60;;;7.60;70.50;;;;;;2239120;56;21527;-71
2020/12/18 03:56:23;;;;;;;3.35;1.40;;;7.60;70.50;;;;;;2238709;56;20965;-71
2020/12/18 03:58:50;;;;;;;4.70;2.03;;;7.50;70.40;;;;;;2239016;56;20989;-72
2020/12/18 04:01:16;;;;;;;3.35;1.77;;;7.50;70.40;;;;;;2238334;56;21453;-72
2020/12/18 04:03:44;;;;;;;4.93;1.98;;;7.40;70.40;;;;;;2239046;56;20968;-71
2020/12/18 04:06:11;;;;;;;3.47;1.75;;;7.40;70.60;;;;;;2238418;56;20961;-72
2020/12/18 04:08:38;;;;;;;3.85;1.90;;;7.30;70.60;;;;;;2461945;56;21056;-71
2020/12/18 04:11:06;;;;;;;4.78;2.40;;;7.30;70.60;;;;;;2461621;55;20976;-71
2020/12/18 04:13:33;;;;;;;4.10;2.20;;;7.20;70.60;;;;;;2450263;56;21004;-71
2020/12/18 04:16:00;;;;;;;3.67;1.80;;;7.20;70.70;;;;;;2235153;56;20963;-72
2020/12/18 04:18:26;;;;;;;3.75;1.80;;;7.10;70.80;;;;;;2232571;56;22034;-71
2020/12/18 04:20:53;;;;;;;3.97;1.75;;;7.10;70.80;;;;;;2232816;56;20931;-71
2020/12/18 04:23:21;;;;;;;4.35;2.00;;;7.00;70.70;;;;;;2451785;55;21564;-71
2020/12/18 04:25:48;;;;;;;4.40;2.20;;;7.00;70.70;;;;;;2239109;55;20995;-71
2020/12/18 04:28:14;;;;;;;3.87;1.92;;;6.80;71.20;;;;;;2457531;55;21127;-71
2020/12/18 04:30:41;;;;;;;4.12;2.20;;;6.90;71.20;;;;;;2450766;55;20992;-71
2020/12/18 04:33:07;;;;;;;6.87;3.00;;;6.90;70.50;;;;;;2228105;55;21031;-71
2020/12/18 04:35:34;;;;;;;6.22;3.08;;;6.90;70.60;;;;;;2238579;56;20939;-71
2020/12/18 04:38:00;;;;;;;4.72;2.55;;;6.80;70.50;;;;;;2239162;56;20985;-71
2020/12/18 04:40:29;;;;;;;5.75;3.00;;;6.70;70.40;;;;;;2238710;55;21596;-71
2020/12/18 04:42:59;;;;;;;5.12;2.90;;;6.70;70.60;;;;;;2229007;55;20965;-71
2020/12/18 04:45:28;;;;;;;4.55;2.70;;;6.70;70.60;;;;;;2236888;55;20979;-71
2020/12/18 04:47:55;;;;;;;4.28;2.20;;;6.60;70.50;;;;;;2228263;56;21001;-70
2020/12/18 04:50:22;;;;;;;4.57;2.35;;;6.60;70.60;;;;;;2235255;55;21008;-71
2020/12/18 04:52:48;;;;;;;5.12;2.78;;;6.60;70.60;;;;;;2234048;55;21062;-71
2020/12/18 04:55:15;;;;;;;4.93;2.30;;;6.50;70.60;;;;;;2225610;55;21030;-71
2020/12/18 04:57:42;;;;;;;4.50;2.50;;;6.50;70.70;;;;;;2459963;55;21394;-71
2020/12/18 05:00:08;;;;;;;5.15;2.05;;;6.50;70.80;;;;;;2236528;56;20944;-71
2020/12/18 05:02:36;;;;;;;3.97;2.42;;;6.40;70.80;;;;;;2238847;56;20981;-70
2020/12/18 05:05:08;;;;;;;3.83;1.83;;;6.40;70.80;;;;;;2238137;56;21021;-71
2020/12/18 05:07:35;;;;;;;3.92;1.90;;;6.40;70.90;;;;;;2240623;56;20980;-71
2020/12/18 05:10:07;;;;;;;4.32;1.67;;;6.40;70.90;;;;;;2238243;56;20952;-71
2020/12/18 05:12:34;;;;;;;4.25;2.20;;;6.30;70.70;;;;;;2417162;56;21043;-71
2020/12/18 05:15:03;;;;;;;5.05;2.45;;;6.30;70.70;;;;;;2419234;56;20973;-71
2020/12/18 05:17:29;;;;;;;4.12;2.17;;;6.30;70.70;;;;;;2239107;56;21070;-71
2020/12/18 05:19:58;;;;;;;6.07;2.15;;;6.20;70.60;;;;;;2236257;56;20935;-71
2020/12/18 05:22:25;;;;;;;5.22;2.42;;;6.20;70.70;;;;;;2227712;55;21020;-71
2020/12/18 05:24:55;;;;;;;4.85;2.40;;;6.20;70.60;;;;;;2227483;56;20955;-70
2020/12/18 05:27:22;;;;;;;5.50;2.53;;;6.20;70.60;;;;;;2451699;56;21014;-70
2020/12/18 05:29:49;;;;;;;5.07;2.50;;;6.10;70.60;;;;;;2233187;55;21513;-71
2020/12/18 05:32:16;;;;;;;4.93;2.50;;;6.10;70.70;;;;;;2230277;56;21042;-70
2020/12/18 05:34:43;;;;;;;10.80;2.78;;;6.10;70.70;;;;;;2449753;56;21789;-70
2020/12/18 05:37:12;;;;;;;6.35;3.10;;;6.10;70.90;;;;;;2443297;55;21070;-71
2020/12/18 05:39:40;;;;;;;8.30;3.60;;;6.00;71.00;;;;;;2230185;56;21513;-70
2020/12/18 05:42:07;;;;;;;12.57;4.10;;;6.00;71.30;;;;;;2237473;55;21063;-72
2020/12/18 05:44:33;;;;;;;13.62;5.30;;;6.00;71.50;;;;;;2235773;55;21070;-72
2020/12/18 05:47:09;;;;;;;9.70;4.90;;;6.00;71.60;;;;;;2227050;56;21031;-72
2020/12/18 05:49:37;;;;;;;9.82;4.82;;;6.00;71.70;;;;;;2207438;57;21032;-72
2020/12/18 05:52:04;;;;;;;8.30;4.43;;;6.00;71.90;;;;;;2206002;57;20984;-72
2020/12/18 05:57:59;;;;;;;9.75;4.97;;;6.00;72.00;;;;;;2443856;56;21062;-72
2020/12/18 06:00:25;;;;;;;9.73;4.95;;;6.00;72.00;;;;;;2228327;55;21946;-70
2020/12/18 06:03:00;;;;;;;9.52;4.93;;;6.00;72.10;;;;;;2225125;55;21850;-70
2020/12/18 06:05:27;;;;;;;10.10;5.20;;;6.00;72.00;;;;;;2230539;55;21061;-71
2020/12/18 06:07:53;;;;;;;9.85;4.57;;;6.00;71.90;;;;;;2227850;56;21519;-71
2020/12/18 06:10:22;;;;;;;7.12;4.05;;;6.00;71.80;;;;;;2238451;56;21803;-70
2020/12/18 06:12:49;;;;;;;6.90;4.12;;;6.00;71.70;;;;;;2446093;55;20959;-71
2020/12/18 06:15:18;;;;;;;6.78;4.03;;;6.00;71.60;;;;;;2228942;55;21590;-71
2020/12/18 06:17:46;;;;;;;7.07;3.50;;;6.00;71.60;;;;;;2236771;56;21458;-70
2020/12/18 06:20:17;;;;;;;9.27;4.47;;;6.00;71.50;;;;;;2238508;56;21060;-70
2020/12/18 06:22:58;;;;;;;6.57;3.85;;;6.00;71.30;;;;;;2445364;55;21118;-71
2020/12/18 06:25:25;;;;;;;5.93;3.58;;;5.90;71.10;;;;;;2239177;55;20973;-71
2020/12/18 06:27:56;;;;;;;10.35;4.28;;;5.90;71.10;;;;;;2462882;55;21832;-70
2020/12/18 06:30:26;;;;;;;6.80;4.30;;;5.90;71.10;;;;;;2236695;56;21567;-70
2020/12/18 06:32:52;;;;;;;6.72;4.12;;;5.90;71.10;;;;;;2229872;56;21021;-70
2020/12/18 06:35:35;;;;;;;7.43;4.25;;;5.90;71.10;;;;;;2462258;55;20985;-71
2020/12/18 06:39:52;;;;;;;7.28;4.10;;;5.80;71.00;;;;;;2460490;55;21071;-70
2020/12/18 06:42:24;;;;;;;8.02;4.70;;;5.90;70.80;;;;;;2462952;56;21524;-70
2020/12/18 06:44:57;;;;;;;8.35;3.92;;;5.80;70.90;;;;;;2452752;56;20968;-70
2020/12/18 06:47:30;;;;;;;;;;;5.80;70.80;;;;;;2459739;56;20953;-71
2020/12/18 06:49:59;;;;;;;;;;;5.80;70.50;;;;;;2242166;56;20078;-71
2020/12/18 06:52:57;;;;;;;4.50;2.65;;;5.80;70.50;;;;;;2238372;56;20126;-70
2020/12/18 06:55:45;;;;;;;6.90;3.05;;;5.70;70.40;;;;;;2445508;56;21749;-70
2020/12/18 06:58:23;;;;;;;5.90;3.42;;;5.70;70.30;;;;;;2240688;56;21116;-71
2020/12/18 07:00:57;;;;;;;4.65;2.60;;;5.60;70.10;;;;;;2462184;55;21120;-71
2020/12/18 07:04:24;;;;;;;6.32;3.28;;;5.60;70.30;;;;;;2238748;56;20988;-71
2020/12/18 07:06:51;;;;;;;7.28;4.00;;;5.60;70.10;;;;;;2448854;56;20995;-71
2020/12/18 07:09:18;;;;;;;5.57;2.75;;;5.50;70.30;;;;;;2236205;56;20945;-71
2020/12/18 07:11:47;;;;;;;6.95;3.40;;;5.50;70.30;;;;;;2462950;55;21013;-71
2020/12/18 07:14:30;;;;;;;4.75;2.95;;;5.40;70.30;;;;;;2224571;56;20933;-70
2020/12/18 07:16:57;;;;;;;8.05;4.20;;;5.40;70.10;;;;;;2447804;55;21603;-71
2020/12/18 07:19:23;;;;;;;8.02;4.53;;;5.40;70.20;;;;;;2455852;55;20980;-71
2020/12/18 07:21:50;;;;;;;7.25;3.65;;;5.40;70.20;;;;;;2462642;55;21802;-71
2020/12/18 07:24:18;;;;;;;6.47;3.83;;;5.30;70.20;;;;;;2231552;55;21118;-72
2020/12/18 07:26:49;;;;;;;7.45;4.40;;;5.40;70.30;;;;;;2458537;55;21048;-70
2020/12/18 07:29:16;;;;;;;6.85;3.97;;;5.30;70.20;;;;;;2238693;56;20945;-71
2020/12/18 07:31:43;;;;;;;5.47;3.40;;;5.30;70.30;;;;;;2460320;55;20988;-71
2020/12/18 07:34:10;;;;;;;4.57;2.78;;;5.20;70.40;;;;;;2235912;56;21025;-70
2020/12/18 07:36:37;;;;;;;5.10;3.22;;;5.20;70.50;;;;;;2460693;55;21072;-70
2020/12/18 07:39:03;;;;;;;5.93;3.40;;;5.20;70.70;;;;;;2448554;56;20925;-70
2020/12/18 07:41:30;;;;;;;11.30;2.97;;;5.20;70.90;;;;;;2460312;55;20973;-70
2020/12/18 07:44:05;;;;;;;6.97;2.75;;;5.20;71.20;;;;;;2442986;55;21035;-70
2020/12/18 07:46:33;;;;;;;5.53;2.83;;;5.20;71.30;;;;;;2452468;55;20985;-70
2020/12/18 07:49:09;;;;;;;5.70;3.05;;;5.20;71.60;;;;;;2459707;55;21669;-70
2020/12/18 07:51:47;;;;;;;10.38;3.67;;;5.20;71.90;;;;;;2462284;55;21359;-71
2020/12/18 07:54:16;;;;;;;8.43;3.42;;;5.30;72.30;;;;;;2237130;56;20983;-71
2020/12/18 07:56:43;;;;;;;15.15;4.05;;;5.30;72.50;;;;;;2441723;55;21777;-70
2020/12/18 07:59:12;;;;;;;8.27;3.55;;;5.30;72.60;;;;;;2417516;56;20980;-70
2020/12/18 08:01:39;;;;;;;8.20;3.47;;;5.40;72.70;;;;;;2231753;56;20987;-71
2020/12/18 08:04:10;;;;;;;6.82;3.70;;;5.40;72.70;;;;;;2447719;55;20961;-70
2020/12/18 08:06:40;;;;;;;8.40;4.22;;;5.40;72.60;;;;;;2449616;55;21716;-71
2020/12/18 08:09:11;;;;;;;6.32;3.37;;;5.40;72.50;;;;;;2227173;55;21441;-70
2020/12/18 08:11:42;;;;;;;7.43;3.95;;;5.50;72.50;;;;;;2238098;56;20976;-71
2020/12/18 08:14:13;;;;;;;7.37;3.80;;;5.50;72.40;;;;;;2239873;56;21012;-71
2020/12/18 08:16:40;;;;;;;14.33;4.63;;;5.50;72.40;;;;;;2229895;55;21416;-70
2020/12/18 08:19:11;;;;;;;10.85;4.60;;;5.60;72.50;;;;;;2226301;55;20980;-70
2020/12/18 08:21:44;;;;;;;15.38;5.87;;;5.60;72.70;;;;;;2450335;56;20923;-70
2020/12/18 08:24:31;;;;;;;12.68;7.53;;;5.60;72.90;;;;;;2235083;56;20980;-71
2020/12/18 08:27:21;;;;;;;14.23;6.18;;;5.70;73.20;;;;;;2448994;55;20975;-71
2020/12/18 08:29:48;;;;;;;9.20;4.80;;;5.70;73.50;;;;;;2232789;55;20974;-70
2020/12/18 08:32:18;;;;;;;9.55;5.00;;;5.80;73.80;;;;;;2420620;56;21791;-71
2020/12/18 08:34:45;;;;;;;7.18;3.83;;;5.80;73.90;;;;;;2207442;57;20976;-71
2020/12/18 08:37:17;;;;;;;7.93;4.62;;;5.80;73.90;;;;;;2443208;55;21014;-70
2020/12/18 08:39:44;;;;;;;8.98;4.97;;;5.90;74.00;;;;;;2231862;55;20974;-70
2020/12/18 08:42:13;;;;;;;10.43;5.62;;;6.00;74.10;;;;;;2455603;56;21126;-71
2020/12/18 08:44:42;;;;;;;8.70;4.55;;;6.00;74.10;;;;;;2229624;55;21062;-70
2020/12/18 08:48:10;;;;;;;11.05;4.12;;;6.10;74.30;;;;;;2456303;55;21104;-71
2020/12/18 08:50:37;;;;;;;7.68;4.22;;;6.20;74.00;;;;;;2239129;56;21040;-71
2020/12/18 08:53:11;;;;;;;7.05;3.65;;;6.20;74.40;;;;;;2445514;55;21046;-71
2020/12/18 08:55:40;;;;;;;7.68;3.00;;;6.30;74.70;;;;;;2238696;55;21092;-71
2020/12/18 08:58:10;;;;;;;5.37;2.65;;;6.40;75.00;;;;;;2229304;56;20999;-71
2020/12/18 09:00:37;;;;;;;8.32;4.85;;;6.40;75.00;;;;;;2450687;55;22088;-71
2020/12/18 09:03:04;;;;;;;6.12;3.33;;;6.50;75.30;;;;;;2442431;55;21856;-72
2020/12/18 09:05:34;;;;;;;7.25;3.78;;;6.60;75.50;;;;;;2237812;56;20947;-71
2020/12/18 09:08:08;;;;;;;11.25;7.07;;;6.70;75.60;;;;;;2461979;55;21104;-72
2020/12/18 09:10:45;;;;;;;8.32;5.45;;;6.80;75.70;;;;;;2461999;56;20940;-71
2020/12/18 09:13:23;;;;;;;21.15;6.82;;;6.90;75.70;;;;;;2461777;55;21041;-71
2020/12/18 09:16:01;;;;;;;16.52;7.60;;;6.90;75.70;;;;;;2419600;56;20979;-71
2020/12/18 09:18:32;;;;;;;12.93;7.72;;;7.00;75.60;;;;;;2454276;55;20949;-72
2020/12/18 09:21:12;;;;;;;11.02;6.32;;;7.10;75.50;;;;;;2462481;56;21056;-71
2020/12/18 09:23:41;;;;;;;7.80;4.45;;;7.20;75.10;;;;;;2451897;56;21067;-72
2020/12/18 09:26:28;;;;;;;6.28;3.72;;;7.20;74.90;;;;;;2235575;56;21048;-71
2020/12/18 09:28:54;;;;;;;6.25;4.00;;;7.30;74.70;;;;;;2417132;56;21015;-71
2020/12/18 09:31:23;;;;;;;6.68;4.15;;;7.30;74.70;;;;;;2232052;55;21031;-71
2020/12/18 09:33:50;;;;;;;7.25;4.28;;;7.30;74.60;;;;;;2233066;55;20995;-71
2020/12/18 09:36:19;;;;;;;7.32;3.72;;;7.40;74.60;;;;;;2230457;55;21016;-71
2020/12/18 09:38:52;;;;;;;7.43;3.83;;;7.40;74.50;;;;;;2449315;55;20975;-71
2020/12/18 09:41:21;;;;;;;5.25;3.20;;;7.40;74.40;;;;;;2235748;55;20989;-72
2020/12/18 09:43:49;;;;;;;10.00;5.07;;;7.50;74.50;;;;;;2446627;55;21968;-71
2020/12/18 09:46:33;;;;;;;10.57;5.15;;;7.50;75.20;;;;;;2444740;56;21006;-71
2020/12/18 09:49:00;;;;;;;7.65;4.87;;;7.50;74.30;;;;;;2444827;55;21490;-71
2020/12/18 09:51:27;;;;;;;8.82;5.28;;;7.60;74.70;;;;;;2238161;54;21724;-72
2020/12/18 09:53:57;;;;;;;10.85;5.68;;;7.60;74.80;;;;;;2439838;55;20981;-72
2020/12/18 09:56:26;;;;;;;;;;;7.60;75.00;;;;;;2211192;57;21518;-72
2020/12/18 09:58:52;;;;;;;7.15;3.50;;;7.70;74.50;;;;;;2447264;55;20195;-71
2020/12/18 10:01:23;;;;;;;6.18;3.75;;;7.80;75.20;;;;;;2230357;55;20997;-72
2020/12/18 10:03:51;;;;;;;7.47;4.17;;;7.80;75.40;;;;;;2239020;56;21092;-72
2020/12/18 10:06:24;;;;;;;5.93;3.95;;;7.90;75.70;;;;;;2460777;55;21111;-72
2020/12/18 10:08:51;;;;;;;5.60;3.62;;;8.00;75.90;;;;;;2446091;56;21032;-72
2020/12/18 10:11:18;;;;;;;7.95;4.25;;;8.00;76.10;;;;;;2447747;55;21013;-72
2020/12/18 10:13:45;;;;;;;7.87;4.45;;;8.10;76.30;;;;;;2226313;55;21074;-72
2020/12/18 10:16:13;;;;;;;9.02;4.30;;;8.20;76.60;;;;;;2444992;56;21509;-72
2020/12/18 10:18:39;;;;;;;9.30;4.47;;;8.30;76.80;;;;;;2442876;55;21066;-72
2020/12/18 10:21:06;;;;;;;8.88;5.75;;;8.40;76.90;;;;;;2227601;56;21092;-71
2020/12/18 10:23:32;;;;;;;11.12;7.28;;;8.50;77.10;;;;;;2459192;55;21051;-72
2020/12/18 10:26:05;;;;;;;9.45;6.30;;;8.60;77.30;;;;;;2450390;56;21001;-72
2020/12/18 10:28:31;;;;;;;10.25;5.35;;;8.70;77.10;;;;;;2228961;55;21408;-72
2020/12/18 10:30:58;;;;;;;7.55;5.05;;;8.70;76.90;;;;;;2455539;55;21132;-72
2020/12/18 10:33:24;;;;;;;8.15;5.68;;;8.80;76.70;;;;;;2441925;55;20991;-72
2020/12/18 10:35:51;;;;;;;8.90;5.80;;;8.90;76.50;;;;;;2229736;55;21086;-72
2020/12/18 10:38:18;;;;;;;8.15;5.05;;;8.90;76.30;;;;;;2229086;55;21988;-72
2020/12/18 10:40:44;;;;;;;8.75;5.87;;;9.00;76.30;;;;;;2238866;56;21025;-72
2020/12/18 10:43:12;;;;;;;9.05;6.12;;;9.10;76.30;;;;;;2448904;55;21479;-72
2020/12/18 10:45:39;;;;;;;7.95;5.28;;;9.10;76.80;;;;;;2236516;56;20983;-72
2020/12/18 10:48:06;;;;;;;9.32;6.43;;;9.20;78.70;;;;;;2224434;55;21130;-72
2020/12/18 10:50:34;;;;;;;9.20;6.10;;;9.50;81.00;;;;;;2420625;56;21918;-73
2020/12/18 10:53:03;;;;;;;9.77;6.05;;;9.80;82.90;;;;;;2460194;55;21540;-73
2020/12/18 10:55:30;;;;;;;9.20;6.35;;;10.20;83.00;;;;;;2227350;56;21481;-73
2020/12/18 10:58:00;;;;;;;8.82;6.20;;;10.60;83.70;;;;;;2232969;56;21023;-72
2020/12/18 11:00:26;;;;;;;8.75;6.20;;;11.00;83.80;;;;;;2227793;55;20972;-72
2020/12/18 11:02:53;;;;;;;8.30;6.50;;;11.50;83.60;;;;;;2443568;56;21087;-73
2020/12/18 11:05:20;;;;;;;8.23;6.43;;;11.90;83.30;;;;;;2441977;55;20998;-72
2020/12/18 11:07:47;;;;;;;8.93;5.93;;;12.30;82.60;;;;;;2237169;56;20969;-73
2020/12/18 11:10:16;;;;;;;7.93;5.85;;;12.60;82.10;;;;;;2462104;56;21033;-72
2020/12/18 11:12:43;;;;;;;8.65;6.00;;;13.00;81.40;;;;;;2462455;55;21032;-73
2020/12/18 11:15:10;;;;;;;8.48;5.95;;;13.30;80.50;;;;;;2459256;55;21015;-73
2020/12/18 11:17:36;;;;;;;11.55;7.18;;;13.60;79.80;;;;;;2448154;56;20957;-73
2020/12/18 11:20:03;;;;;;;8.52;5.90;;;13.80;78.80;;;;;;2460638;55;21001;-73
2020/12/18 11:22:30;;;;;;;8.32;5.32;;;14.00;78.20;;;;;;2446330;55;21091;-73
2020/12/18 11:24:56;;;;;;;8.55;5.87;;;14.10;77.30;;;;;;2460931;55;20940;-73
2020/12/18 11:27:23;;;;;;;11.77;7.68;;;14.20;76.40;;;;;;2445153;56;20991;-73
2020/12/18 11:29:50;;;;;;;13.73;8.82;;;14.30;76.00;;;;;;2238776;56;20952;-73
2020/12/18 11:32:17;;;;;;;8.70;6.00;;;14.40;75.90;;;;;;2238533;55;21442;-73
2020/12/18 11:34:44;;;;;;;9.70;5.30;;;14.40;75.00;;;;;;2233644;56;20971;-73
2020/12/18 11:37:11;;;;;;;10.60;7.40;;;14.40;73.80;;;;;;2441911;56;21039;-72
2020/12/18 11:39:37;;;;;;;13.27;8.70;;;14.30;73.00;;;;;;2238630;56;21064;-73
2020/12/18 11:42:04;;;;;;;11.10;7.68;;;14.20;71.80;;;;;;2237759;56;20976;-73
2020/12/18 11:44:31;;;;;;;9.25;6.18;;;14.10;70.90;;;;;;2238636;55;21032;-73
2020/12/18 11:46:58;;;;;;;13.45;6.32;;;13.80;70.40;;;;;;2232390;56;21015;-73
2020/12/18 11:49:25;;;;;;;11.68;7.10;;;13.80;70.60;;;;;;2455252;55;20981;-73
2020/12/18 11:51:52;;;;;;;8.27;5.43;;;13.70;70.50;;;;;;2235557;56;20972;-73
2020/12/18 11:54:19;;;;;;;8.52;5.57;;;13.60;70.70;;;;;;2461733;55;21072;-72
2020/12/18 11:56:49;;;;;;;9.05;5.70;;;13.50;70.80;;;;;;2462463;55;21012;-73
2020/12/18 11:59:16;;;;;;;9.27;6.32;;;13.40;70.60;;;;;;2238512;56;20984;-73
2020/12/18 12:01:42;;;;;;;9.35;6.68;;;13.30;71.00;;;;;;2446048;55;21464;-72
2020/12/18 12:04:09;;;;;;;11.38;7.05;;;13.30;71.50;;;;;;2228698;55;20983;-73
2020/12/18 12:06:38;;;;;;;9.77;6.50;;;13.20;71.70;;;;;;2461777;56;20980;-73
2020/12/18 12:09:05;;;;;;;9.65;6.25;;;13.20;72.10;;;;;;2227320;55;20955;-72
2020/12/18 12:11:38;;;;;;;7.37;5.55;;;13.20;72.40;;;;;;2462216;55;20989;-73
2020/12/18 12:14:05;;;;;;;7.55;5.10;;;13.20;72.40;;;;;;2229621;55;21047;-72
2020/12/18 12:16:35;;;;;;;8.48;5.72;;;13.20;73.20;;;;;;2235638;56;20995;-73
2020/12/18 12:19:02;;;;;;;10.05;6.03;;;13.30;73.40;;;;;;2228841;55;20950;-72
2020/12/18 12:21:35;;;;;;;8.30;5.78;;;13.40;73.90;;;;;;2226845;55;21006;-72
2020/12/18 12:24:02;;;;;;;7.40;5.20;;;13.50;73.70;;;;;;2232595;56;21015;-73
2020/12/18 12:26:29;;;;;;;7.60;5.37;;;13.50;73.90;;;;;;2225050;55;21078;-73
2020/12/18 12:28:56;;;;;;;8.40;6.03;;;13.60;74.00;;;;;;2461718;56;20996;-72
2020/12/18 12:31:24;;;;;;;8.75;6.18;;;13.60;73.80;;;;;;2449247;55;20948;-73
2020/12/18 12:33:51;;;;;;;10.40;6.97;;;13.70;73.70;;;;;;2440880;55;20979;-73
2020/12/18 12:36:21;;;;;;;9.95;6.43;;;13.70;73.60;;;;;;2230813;56;20977;-72
2020/12/18 12:38:49;;;;;;;10.32;6.82;;;13.80;73.80;;;;;;2241383;55;21418;-72
2020/12/18 12:41:16;;;;;;;10.13;6.40;;;13.90;74.00;;;;;;2218566;55;21011;-72
2020/12/18 12:43:43;;;;;;;9.80;6.80;;;13.90;74.20;;;;;;2230308;56;20976;-73
2020/12/18 12:46:10;;;;;;;11.43;7.30;;;14.00;73.90;;;;;;2238211;56;21939;-72
2020/12/18 12:48:40;;;;;;;13.18;8.15;;;14.00;73.80;;;;;;2460889;55;21536;-72
2020/12/18 12:51:06;;;;;;;10.68;7.10;;;14.10;73.90;;;;;;2447050;56;21021;-73
2020/12/18 12:53:33;;;;;;;11.35;7.28;;;14.20;74.10;;;;;;2461296;55;21355;-73
2020/12/18 12:56:00;;;;;;;11.18;7.87;;;14.30;74.30;;;;;;2224775;56;20969;-73
2020/12/18 12:58:27;;;;;;;10.00;6.80;;;14.40;74.40;;;;;;2237575;56;20989;-72
2020/12/18 13:00:53;;;;;;;9.30;6.10;;;14.50;74.60;;;;;;2462030;55;20976;-72
2020/12/18 13:03:23;;;;;;;8.00;5.95;;;14.60;74.50;;;;;;2230226;56;21062;-73
2020/12/18 13:05:50;;;;;;;8.65;5.03;;;14.70;74.10;;;;;;2412421;56;21010;-72
2020/12/18 13:08:19;;;;;;;10.25;6.50;;;14.80;73.80;;;;;;2212316;56;21086;-71
2020/12/18 13:10:45;;;;;;;26.12;13.98;;;14.90;73.10;;;;;;2224757;55;21022;-73